Cottonwood, Texas
Current Conditions -  °F | °C
As of 12:15 PM on Friday 28 Nov 2014 (Local Time) from KCFD Reporting Station
Clear Clear  
Wind Chill: 68°   Ceiling: Unl
Heat Index: 68°   Visibility: 10mi
Dew Point: 53°   Wind: 13mph
Humidity: 59%   Direction: 200°SSW
Pressure: 30.25"   Gusts: 18mph
Location:  30.9382°N, 96.0901°W
Report Text: KCFD 281815Z AUTO 20011G16KT 10SM CLR 20/12 A3025 RMK AO2 T01980117
Loading
Personal Weather Stations






























Interactive Weather Map New forecast layout! Learn more

10-Day Weather Forecast

Advertisements
Track Severe Weather on mobile